IPZ weather

San Isidro del General Airport
Pérez Zeledón, San Jose, Costa Rica

Public forecast

Using degrees Celsius for public forecast. Weather courtesy of forecast.io.

Closest aviation weather report (METAR) to San Isidro del General Airport

Report is more than 6 hours old.

Closest report is Palmar Sur Airport, 28.1 nm (52.1 km) SSE. Retrieved 2011/05/11 15:00 UTC (9 years ago):

MRPM 111500Z 11010KT 9999 SCT015 BKN250 26/19 A2997 RMK RA N GUST 16KT NOSIG

Closest aviation forecast (TAF) to San Isidro del General Airport

Closest forecast is Tobias Bolanos International Airport, 44.2 nm (81.9 km) NW. Retrieved 2020-06-05 00:39 UTC (3 hours ago):

TAF TAF MRPV 042300Z 0500/0524 28006KT 9999 SCT025 BKN200 TX27/0516Z TN18/0510Z TEMPO 0500/0503 RA BKN010 TEMPO 0606/0512 08005KT BECMG 0518/0521 4000 SHRA TEMPO 0522/0524 5000 RA